Time;durP1;ratioP1;P1;durP2;ratioP2;P2;SDS_P1;SDS_P2;PMS_P1;PMS_P2;Temp;Humidity;BMP_temperature;BMP_pressure;BME280_temperature;BME280_humidity;BME280_pressure;Samples;Min_cycle;Max_cycle;Signal;HPM_P1;HPM_P2
2023/04/13 00:00:54;;;;;;;0.50;0.50;;;18.60;47.80;;;;;;5015504;28;20196;-82
2023/04/13 00:03:20;;;;;;;1.85;0.60;;;18.50;47.70;;;;;;5015732;28;20309;-82
2023/04/13 00:05:51;;;;;;;0.60;0.60;;;18.50;47.70;;;;;;5016364;28;20212;-82
2023/04/13 00:08:21;;;;;;;1.40;0.55;;;18.50;47.80;;;;;;5015360;28;20216;-82
2023/04/13 00:10:49;;;;;;;0.60;0.60;;;18.50;47.70;;;;;;5015453;28;20201;-82
2023/04/13 00:13:18;;;;;;;0.70;0.70;;;18.40;47.70;;;;;;5015666;28;20216;-83
2023/04/13 00:15:46;;;;;;;1.40;0.50;;;18.40;47.70;;;;;;5018686;28;20295;-82
2023/04/13 00:18:13;;;;;;;0.40;0.40;;;18.40;47.70;;;;;;5018591;28;20228;-82
2023/04/13 00:20:42;;;;;;;0.57;0.57;;;18.40;47.70;;;;;;5019412;28;20192;-82
2023/04/13 00:23:10;;;;;;;0.60;0.60;;;18.40;47.70;;;;;;5017606;28;20228;-82
2023/04/13 00:25:37;;;;;;;0.60;0.60;;;18.30;47.60;;;;;;5017749;28;20255;-82
2023/04/13 00:28:05;;;;;;;0.52;0.52;;;18.30;47.50;;;;;;5018346;28;20209;-83
2023/04/13 00:30:33;;;;;;;0.57;0.57;;;18.30;47.70;;;;;;5016906;28;20270;-82
2023/04/13 00:33:03;;;;;;;0.50;0.50;;;18.30;47.60;;;;;;5016973;28;20333;-83
2023/04/13 00:35:30;;;;;;;1.10;0.60;;;18.30;47.70;;;;;;5017424;28;20211;-83
2023/04/13 00:37:59;;;;;;;0.43;0.43;;;18.30;47.70;;;;;;5017439;28;20196;-83
2023/04/13 00:40:27;;;;;;;0.60;0.60;;;18.30;47.70;;;;;;5017741;28;20200;-83
2023/04/13 00:42:55;;;;;;;0.50;0.50;;;18.30;47.70;;;;;;5018366;28;20221;-82
2023/04/13 00:45:22;;;;;;;0.85;0.60;;;18.30;47.80;;;;;;5018466;28;20208;-82
2023/04/13 00:47:52;;;;;;;0.63;0.63;;;18.20;47.70;;;;;;5019918;28;20255;-82
2023/04/13 00:50:20;;;;;;;0.57;0.57;;;18.20;47.80;;;;;;5030675;28;20181;-82
2023/04/13 00:52:47;;;;;;;0.70;0.60;;;18.20;47.80;;;;;;5040017;28;20193;-82
2023/04/13 00:55:19;;;;;;;0.50;0.50;;;18.20;47.70;;;;;;5040282;28;20199;-82
2023/04/13 00:57:48;;;;;;;0.50;0.40;;;18.20;47.80;;;;;;5040106;28;20184;-82
2023/04/13 01:00:17;;;;;;;0.50;0.50;;;18.20;47.90;;;;;;5040048;28;20189;-82
2023/04/13 01:02:44;;;;;;;0.50;0.50;;;18.20;47.90;;;;;;5034237;28;20220;-82
2023/04/13 01:05:15;;;;;;;0.75;0.55;;;18.20;47.90;;;;;;5021953;28;20210;-82
2023/04/13 01:07:46;;;;;;;0.50;0.50;;;18.10;47.80;;;;;;5017335;28;20220;-82
2023/04/13 01:10:16;;;;;;;0.52;0.52;;;18.10;48.50;;;;;;5016985;28;20223;-82
2023/04/13 01:12:47;;;;;;;0.50;0.50;;;18.10;47.90;;;;;;5016958;28;20299;-82
2023/04/13 01:15:15;;;;;;;0.55;0.50;;;18.10;47.90;;;;;;5017517;28;20204;-82
2023/04/13 01:17:44;;;;;;;1.25;0.57;;;18.10;47.80;;;;;;5016540;28;20197;-82
2023/04/13 01:20:15;;;;;;;0.70;0.52;;;18.10;47.90;;;;;;5016666;28;20687;-82
2023/04/13 01:22:46;;;;;;;0.60;0.60;;;18.10;47.80;;;;;;5020963;28;20287;-82
2023/04/13 01:25:26;;;;;;;0.52;0.50;;;18.10;47.80;;;;;;5019420;28;20220;-82
2023/04/13 01:27:58;;;;;;;0.47;0.47;;;18.10;47.80;;;;;;5016563;28;20216;-82
2023/04/13 01:30:27;;;;;;;1.40;0.50;;;18.10;47.80;;;;;;5016762;28;20192;-82
2023/04/13 01:32:56;;;;;;;0.60;0.60;;;18.10;47.90;;;;;;5016410;28;20611;-82
2023/04/13 01:35:24;;;;;;;0.50;0.50;;;18.00;47.70;;;;;;5015780;28;20628;-82
2023/04/13 01:37:52;;;;;;;0.65;0.57;;;18.00;47.80;;;;;;5016231;28;20189;-82
2023/04/13 01:40:25;;;;;;;1.95;0.47;;;18.00;47.80;;;;;;5015554;28;20193;-82
2023/04/13 01:42:57;;;;;;;0.50;0.50;;;18.00;47.90;;;;;;5015718;28;20247;-82
2023/04/13 01:45:29;;;;;;;0.50;0.50;;;18.00;47.80;;;;;;5015956;28;20197;-82
2023/04/13 01:48:03;;;;;;;0.47;0.47;;;17.90;47.80;;;;;;5015709;28;20546;-82
2023/04/13 01:50:57;;;;;;;0.65;0.50;;;17.90;47.80;;;;;;5015213;28;20203;-82
2023/04/13 01:53:37;;;;;;;0.50;0.50;;;17.80;47.70;;;;;;5016278;28;20221;-82
2023/04/13 01:56:06;;;;;;;0.70;0.60;;;17.90;47.80;;;;;;5018590;28;20663;-82
2023/04/13 01:58:35;;;;;;;0.55;0.55;;;17.80;47.70;;;;;;5019018;28;20197;-82
2023/04/13 02:01:11;;;;;;;0.70;0.57;;;17.90;47.80;;;;;;5020291;28;20192;-82
2023/04/13 02:03:38;;;;;;;1.95;0.52;;;17.80;47.70;;;;;;5019700;28;20216;-82
2023/04/13 02:06:06;;;;;;;0.40;0.40;;;17.80;47.70;;;;;;5018698;28;20569;-82
2023/04/13 02:08:35;;;;;;;0.40;0.40;;;17.80;47.70;;;;;;5019250;28;20216;-83
2023/04/13 02:11:03;;;;;;;0.93;0.60;;;17.80;47.80;;;;;;5019974;28;20207;-83
2023/04/13 02:13:30;;;;;;;0.73;0.60;;;17.70;47.60;;;;;;5019166;28;20243;-83
2023/04/13 02:15:59;;;;;;;0.60;0.60;;;17.80;47.70;;;;;;5019948;28;20204;-82
2023/04/13 02:18:26;;;;;;;0.40;0.40;;;17.70;47.60;;;;;;5018607;28;20203;-82
2023/04/13 02:20:59;;;;;;;0.98;0.55;;;17.80;47.80;;;;;;5020375;28;20224;-82
2023/04/13 02:23:27;;;;;;;0.50;0.50;;;17.70;47.60;;;;;;5020215;28;20227;-82
2023/04/13 02:25:54;;;;;;;1.75;0.70;;;17.70;47.70;;;;;;5027260;28;20268;-82
2023/04/13 02:28:46;;;;;;;0.55;0.43;;;17.70;47.50;;;;;;5033841;28;20244;-82
2023/04/13 02:31:18;;;;;;;0.45;0.45;;;17.70;47.50;;;;;;5018410;28;20193;-82
2023/04/13 02:33:46;;;;;;;0.85;0.70;;;17.60;47.50;;;;;;5033750;28;20630;-82
2023/04/13 02:36:16;;;;;;;0.73;0.50;;;17.70;47.60;;;;;;5032754;28;20224;-82
2023/04/13 02:38:51;;;;;;;0.60;0.60;;;17.60;47.60;;;;;;5033731;28;20252;-82
2023/04/13 02:41:30;;;;;;;0.50;0.50;;;17.60;47.60;;;;;;5033817;28;20197;-82
2023/04/13 02:43:58;;;;;;;0.60;0.60;;;17.60;47.60;;;;;;5004687;28;20223;-82
2023/04/13 02:46:30;;;;;;;0.47;0.40;;;17.60;47.70;;;;;;4999409;28;20739;-83
2023/04/13 02:49:17;;;;;;;0.50;0.50;;;17.60;47.60;;;;;;5016629;28;20243;-83
2023/04/13 02:52:05;;;;;;;0.40;0.40;;;17.50;47.60;;;;;;5009649;28;20231;-82
2023/04/13 02:54:45;;;;;;;0.43;0.43;;;17.50;47.50;;;;;;5016743;28;20233;-82
2023/04/13 02:57:13;;;;;;;1.02;0.65;;;17.50;47.60;;;;;;5015058;28;20247;-82
2023/04/13 02:59:42;;;;;;;0.60;0.60;;;17.50;47.60;;;;;;5014422;28;20246;-82
2023/04/13 03:02:13;;;;;;;0.75;0.60;;;17.50;47.50;;;;;;5014989;28;20706;-82
2023/04/13 03:04:41;;;;;;;0.60;0.60;;;17.50;47.40;;;;;;5015088;28;20249;-82
2023/04/13 03:07:09;;;;;;;1.13;0.80;;;17.60;47.40;;;;;;5013993;28;20547;-82
2023/04/13 03:09:41;;;;;;;0.50;0.50;;;17.50;47.30;;;;;;5014712;28;20205;-82
2023/04/13 03:12:09;;;;;;;0.70;0.70;;;17.50;47.30;;;;;;5014281;28;20213;-82
2023/04/13 03:14:37;;;;;;;0.60;0.60;;;17.50;47.30;;;;;;5014781;28;20216;-82
2023/04/13 03:17:08;;;;;;;0.82;0.68;;;17.60;47.40;;;;;;5014644;28;20224;-82
2023/04/13 03:19:45;;;;;;;0.65;0.57;;;17.50;47.30;;;;;;5013772;28;20199;-82
2023/04/13 03:22:12;;;;;;;0.73;0.70;;;17.50;47.40;;;;;;5013621;28;20220;-82
2023/04/13 03:24:45;;;;;;;0.88;0.60;;;17.50;47.50;;;;;;5013676;28;20200;-82
2023/04/13 03:27:20;;;;;;;0.50;0.50;;;17.50;47.50;;;;;;5014063;28;20331;-82
2023/04/13 03:29:49;;;;;;;0.65;0.65;;;17.50;47.40;;;;;;5013891;28;20699;-82
2023/04/13 03:32:21;;;;;;;0.50;0.50;;;17.50;47.40;;;;;;5014053;28;20216;-83
2023/04/13 03:34:54;;;;;;;0.80;0.80;;;17.50;47.50;;;;;;5013894;28;20193;-83
2023/04/13 03:37:21;;;;;;;0.57;0.57;;;17.50;47.30;;;;;;5013667;28;20291;-82
2023/04/13 03:39:48;;;;;;;0.50;0.50;;;17.50;47.40;;;;;;5013277;28;20225;-83
2023/04/13 03:42:20;;;;;;;0.73;0.60;;;17.50;47.40;;;;;;4997965;28;20225;-82
2023/04/13 03:44:54;;;;;;;0.88;0.60;;;17.50;47.40;;;;;;5014179;28;20197;-82
2023/04/13 03:47:21;;;;;;;0.90;0.60;;;17.50;47.50;;;;;;5013973;28;20205;-83
2023/04/13 03:49:48;;;;;;;0.55;0.55;;;17.50;47.60;;;;;;5017713;28;20212;-82
2023/04/13 03:52:18;;;;;;;0.65;0.40;;;17.50;47.40;;;;;;5017193;28;20729;-83
2023/04/13 03:54:52;;;;;;;0.55;0.55;;;17.50;47.40;;;;;;5018907;28;20280;-83
2023/04/13 03:57:21;;;;;;;0.47;0.30;;;17.50;47.30;;;;;;5001040;28;20243;-83
2023/04/13 03:59:50;;;;;;;0.40;0.40;;;17.50;47.30;;;;;;5018275;28;20327;-82
2023/04/13 04:02:26;;;;;;;0.40;0.40;;;17.50;47.30;;;;;;5017885;28;20721;-83
2023/04/13 04:04:53;;;;;;;0.68;0.68;;;17.50;47.30;;;;;;5017653;28;20218;-83
2023/04/13 04:07:22;;;;;;;0.52;0.52;;;17.50;47.30;;;;;;5016915;28;20224;-83
2023/04/13 04:09:50;;;;;;;1.00;0.65;;;17.50;47.30;;;;;;5016954;28;20224;-82
2023/04/13 04:12:19;;;;;;;0.52;0.52;;;17.50;47.30;;;;;;5000780;28;20223;-83
2023/04/13 04:14:46;;;;;;;0.60;0.60;;;17.50;47.30;;;;;;5017198;28;20203;-83
2023/04/13 04:17:20;;;;;;;0.93;0.70;;;17.50;47.30;;;;;;5002498;28;20192;-83
2023/04/13 04:19:48;;;;;;;0.75;0.70;;;17.50;47.40;;;;;;5016500;28;20212;-83
2023/04/13 04:22:20;;;;;;;0.75;0.70;;;17.50;48.00;;;;;;5001761;28;20217;-82
2023/04/13 04:24:48;;;;;;;0.60;0.60;;;17.50;47.50;;;;;;5016257;28;20203;-82
2023/04/13 04:27:15;;;;;;;0.73;0.57;;;17.50;47.50;;;;;;5016857;28;20283;-82
2023/04/13 04:29:48;;;;;;;1.00;0.50;;;17.50;47.50;;;;;;5017041;28;20303;-82
2023/04/13 04:32:24;;;;;;;0.55;0.52;;;17.50;47.60;;;;;;5022770;28;20338;-82
2023/04/13 04:34:53;;;;;;;1.58;0.55;;;17.50;47.60;;;;;;5017081;28;20208;-82
2023/04/13 04:37:22;;;;;;;0.77;0.63;;;17.50;47.60;;;;;;5016709;28;20193;-82
2023/04/13 04:40:09;;;;;;;0.70;0.70;;;17.50;47.60;;;;;;5017198;28;20185;-82
2023/04/13 04:42:37;;;;;;;0.80;0.70;;;17.50;47.50;;;;;;5016273;28;20226;-82
2023/04/13 04:45:08;;;;;;;0.75;0.75;;;17.50;47.60;;;;;;5016649;28;20697;-82
2023/04/13 04:47:42;;;;;;;1.83;0.70;;;17.50;47.60;;;;;;5033031;28;20238;-82
2023/04/13 04:50:25;;;;;;;1.75;0.80;;;17.60;47.60;;;;;;5016447;28;20263;-82
2023/04/13 04:53:03;;;;;;;0.47;0.47;;;17.50;47.40;;;;;;5017689;28;20255;-82
2023/04/13 04:55:32;;;;;;;0.73;0.73;;;17.60;47.40;;;;;;5017679;28;20207;-82
2023/04/13 04:57:59;;;;;;;0.63;0.60;;;17.60;47.40;;;;;;5017590;28;20255;-82
2023/04/13 05:00:29;;;;;;;1.05;0.70;;;17.60;47.20;;;;;;5016321;28;20193;-83
2023/04/13 05:03:06;;;;;;;1.75;0.70;;;17.60;47.20;;;;;;5017508;28;20220;-82
2023/04/13 05:05:34;;;;;;;0.82;0.57;;;17.60;47.20;;;;;;5016824;28;20207;-82
2023/04/13 05:08:07;;;;;;;0.93;0.77;;;17.70;47.30;;;;;;5017067;28;20203;-81
2023/04/13 05:10:45;;;;;;;0.80;0.60;;;17.60;47.30;;;;;;5016952;28;20213;-82
2023/04/13 05:13:12;;;;;;;1.17;0.65;;;17.60;47.10;;;;;;5016854;28;20221;-82
2023/04/13 05:15:42;;;;;;;1.33;0.90;;;17.70;47.30;;;;;;5016846;28;20667;-81
2023/04/13 05:18:11;;;;;;;1.42;0.85;;;17.80;47.30;;;;;;5016397;28;20256;-82
2023/04/13 05:20:38;;;;;;;1.23;0.95;;;17.70;48.40;;;;;;5016541;28;20216;-82
2023/04/13 05:23:08;;;;;;;0.90;0.70;;;17.80;48.40;;;;;;5016705;28;20724;-82
2023/04/13 05:25:40;;;;;;;2.25;0.82;;;17.70;48.20;;;;;;5017536;28;20192;-82
2023/04/13 05:28:17;;;;;;;1.65;0.70;;;17.80;48.40;;;;;;5016404;28;20204;-82
2023/04/13 05:30:48;;;;;;;1.10;0.70;;;17.80;48.10;;;;;;5016155;28;20303;-82
2023/04/13 05:33:16;;;;;;;3.10;1.08;;;17.80;48.50;;;;;;5016432;28;20583;-82
2023/04/13 05:35:43;;;;;;;4.75;0.90;;;17.90;48.20;;;;;;5015866;28;20287;-81
2023/04/13 05:38:11;;;;;;;1.20;0.70;;;17.90;48.50;;;;;;5016167;28;20211;-81
2023/04/13 05:40:40;;;;;;;1.17;0.73;;;17.90;48.40;;;;;;5000330;28;20200;-82
2023/04/13 05:43:07;;;;;;;0.60;0.60;;;18.00;48.60;;;;;;5017063;28;20213;-82
2023/04/13 05:45:42;;;;;;;0.98;0.70;;;17.90;48.40;;;;;;5016879;28;20201;-81
2023/04/13 05:48:13;;;;;;;1.70;0.90;;;18.00;48.40;;;;;;5000342;28;20192;-81
2023/04/13 05:50:43;;;;;;;0.88;0.70;;;18.00;48.20;;;;;;5016190;28;20292;-80
2023/04/13 05:53:11;;;;;;;1.42;0.88;;;18.00;47.90;;;;;;5031524;28;20216;-80
2023/04/13 05:55:48;;;;;;;2.50;0.80;;;18.00;47.70;;;;;;5032814;28;20250;-80
2023/04/13 05:58:17;;;;;;;1.15;0.70;;;18.00;47.70;;;;;;5032557;28;20200;-80
2023/04/13 06:00:46;;;;;;;0.98;0.73;;;18.00;47.40;;;;;;5026093;28;20208;-80
2023/04/13 06:03:19;;;;;;;1.67;0.60;;;18.00;47.20;;;;;;5021240;28;20278;-80
2023/04/13 06:05:47;;;;;;;1.10;0.70;;;18.00;47.40;;;;;;5019420;28;20208;-80
2023/04/13 06:08:15;;;;;;;1.52;0.73;;;18.00;47.10;;;;;;5019216;28;20197;-80
2023/04/13 06:10:43;;;;;;;1.73;0.90;;;18.10;47.30;;;;;;5001557;28;20244;-80
2023/04/13 06:13:10;;;;;;;0.98;0.70;;;18.20;47.10;;;;;;5004256;28;20220;-80
2023/04/13 06:15:38;;;;;;;2.38;0.60;;;18.20;47.20;;;;;;5019865;28;20211;-81
2023/04/13 06:18:06;;;;;;;1.33;0.82;;;18.20;47.00;;;;;;5021368;28;20208;-83
2023/04/13 06:20:34;;;;;;;2.97;0.77;;;18.20;46.80;;;;;;5000882;28;20197;-80
2023/04/13 06:23:02;;;;;;;1.77;0.88;;;18.20;46.70;;;;;;5020338;28;20295;-81
2023/04/13 06:25:30;;;;;;;1.35;0.80;;;18.30;46.70;;;;;;5018868;28;20220;-82
2023/04/13 06:27:57;;;;;;;1.30;0.80;;;18.40;46.60;;;;;;5018348;28;20197;-81
2023/04/13 06:30:25;;;;;;;1.33;0.90;;;18.50;46.50;;;;;;5018872;28;20228;-81
2023/04/13 06:32:56;;;;;;;2.58;1.00;;;18.60;46.10;;;;;;5018915;28;20292;-81
2023/04/13 06:35:29;;;;;;;1.92;0.85;;;18.60;45.90;;;;;;5018391;28;20235;-81
2023/04/13 06:37:57;;;;;;;1.00;0.77;;;18.70;45.50;;;;;;5018470;28;20203;-80
2023/04/13 06:40:32;;;;;;;1.85;0.80;;;18.80;46.00;;;;;;5018453;28;20188;-80
2023/04/13 06:43:04;;;;;;;1.55;0.90;;;18.80;45.70;;;;;;5017691;28;20647;-80
2023/04/13 06:45:43;;;;;;;1.38;0.90;;;19.00;45.40;;;;;;5017354;28;20196;-80
2023/04/13 06:48:18;;;;;;;1.45;0.80;;;19.10;45.50;;;;;;5015568;28;20259;-80
2023/04/13 06:50:49;;;;;;;2.08;0.90;;;19.20;45.60;;;;;;5014391;28;20236;-80
2023/04/13 06:53:16;;;;;;;1.33;0.82;;;19.50;45.40;;;;;;5014037;28;20225;-81
2023/04/13 06:55:44;;;;;;;1.58;1.08;;;19.70;44.70;;;;;;5013972;28;20733;-80
2023/04/13 06:58:11;;;;;;;1.20;0.70;;;19.90;44.40;;;;;;5014701;28;20295;-80
2023/04/13 07:00:38;;;;;;;1.52;0.90;;;20.10;43.60;;;;;;5014478;28;20200;-80
2023/04/13 07:03:05;;;;;;;1.23;0.80;;;20.10;43.60;;;;;;5014455;28;20223;-80
2023/04/13 07:05:33;;;;;;;1.85;0.70;;;20.10;43.50;;;;;;5014200;28;20287;-80
2023/04/13 07:08:11;;;;;;;0.55;0.50;;;20.00;43.40;;;;;;4998579;28;20192;-80
2023/04/13 07:10:39;;;;;;;1.63;0.80;;;19.90;43.40;;;;;;5013850;28;20232;-80
2023/04/13 07:13:13;;;;;;;1.92;1.00;;;19.90;43.40;;;;;;5013666;28;20239;-80
2023/04/13 07:15:41;;;;;;;0.70;0.60;;;19.90;43.40;;;;;;5013670;28;20203;-80
2023/04/13 07:18:09;;;;;;;1.08;0.82;;;19.90;43.50;;;;;;4997800;28;20196;-80
2023/04/13 07:20:37;;;;;;;1.02;0.57;;;19.90;43.40;;;;;;5013447;28;20286;-80
2023/04/13 07:23:04;;;;;;;1.23;0.73;;;19.90;43.30;;;;;;5013540;28;20587;-80
2023/04/13 07:25:34;;;;;;;1.10;1.00;;;19.90;43.50;;;;;;5013990;28;20205;-80
2023/04/13 07:28:01;;;;;;;1.85;0.70;;;19.90;43.30;;;;;;4998482;28;20242;-81
2023/04/13 07:30:30;;;;;;;1.85;0.80;;;19.90;43.50;;;;;;4998141;28;20244;-80
2023/04/13 07:32:57;;;;;;;1.50;0.90;;;19.90;43.50;;;;;;5013646;28;20223;-80
2023/04/13 07:35:24;;;;;;;1.58;0.90;;;19.80;43.30;;;;;;5013714;28;20202;-80
2023/04/13 07:37:52;;;;;;;1.55;0.80;;;19.90;43.30;;;;;;5013960;28;20549;-80
2023/04/13 07:40:20;;;;;;;2.17;1.00;;;19.90;43.30;;;;;;5014313;28;20729;-80
2023/04/13 07:42:52;;;;;;;1.58;0.70;;;19.80;43.30;;;;;;5004801;28;20752;-80
2023/04/13 07:45:20;;;;;;;0.82;0.80;;;19.90;43.20;;;;;;5013387;28;20264;-80
2023/04/13 07:47:47;;;;;;;1.50;0.80;;;19.80;43.10;;;;;;5013900;28;20243;-80
2023/04/13 07:50:15;;;;;;;0.82;0.80;;;19.80;43.10;;;;;;5013508;28;20592;-80
2023/04/13 07:52:43;;;;;;;2.58;0.95;;;19.90;42.90;;;;;;5013751;28;20221;-80
2023/04/13 07:55:10;;;;;;;0.95;0.75;;;19.90;43.20;;;;;;4997259;28;20196;-81
2023/04/13 07:57:43;;;;;;;0.98;0.90;;;19.90;42.90;;;;;;5014131;28;20185;-82
2023/04/13 08:00:13;;;;;;;1.17;0.90;;;19.90;43.10;;;;;;5013070;28;20404;-80
2023/04/13 08:02:42;;;;;;;1.45;0.77;;;19.80;42.90;;;;;;5012846;28;20217;-82
2023/04/13 08:05:14;;;;;;;1.83;1.00;;;19.90;43.10;;;;;;4997688;28;20205;-80
2023/04/13 08:07:45;;;;;;;1.42;0.95;;;19.90;43.10;;;;;;4997199;28;20243;-81
2023/04/13 08:10:12;;;;;;;1.38;0.80;;;20.00;43.10;;;;;;5012786;28;20648;-82
2023/04/13 08:12:39;;;;;;;0.70;0.70;;;20.00;43.10;;;;;;5013003;28;20246;-82
2023/04/13 08:15:08;;;;;;;1.58;0.70;;;20.10;42.80;;;;;;4996495;28;20205;-82
2023/04/13 08:17:37;;;;;;;1.20;0.90;;;20.10;42.90;;;;;;5012966;28;20216;-81
2023/04/13 08:20:07;;;;;;;2.05;0.90;;;20.20;42.70;;;;;;5013899;28;20189;-81
2023/04/13 08:22:35;;;;;;;1.80;0.85;;;20.30;42.60;;;;;;5014594;28;20217;-81
2023/04/13 08:25:06;;;;;;;1.60;0.80;;;20.40;42.70;;;;;;5014988;28;20200;-82
2023/04/13 08:27:33;;;;;;;1.92;0.95;;;20.50;42.40;;;;;;5015073;28;20201;-82
2023/04/13 08:30:02;;;;;;;0.93;0.80;;;20.50;42.30;;;;;;5013914;28;20225;-81
2023/04/13 08:32:44;;;;;;;2.30;0.95;;;20.50;42.30;;;;;;5013653;28;20308;-81
2023/04/13 08:35:12;;;;;;;1.67;0.90;;;20.60;42.20;;;;;;5016124;28;20223;-80
2023/04/13 08:37:39;;;;;;;1.50;0.82;;;20.50;41.90;;;;;;5017717;28;20217;-80
2023/04/13 08:40:10;;;;;;;1.75;0.98;;;20.50;42.00;;;;;;5017864;28;20189;-80
2023/04/13 08:42:39;;;;;;;0.98;0.82;;;20.60;42.10;;;;;;5016597;28;20212;-80
2023/04/13 08:45:08;;;;;;;2.10;1.00;;;20.60;41.90;;;;;;5000902;28;20204;-81
2023/04/13 08:47:36;;;;;;;1.88;0.90;;;20.60;41.70;;;;;;5016804;28;20212;-81
2023/04/13 08:50:06;;;;;;;1.25;0.90;;;20.60;41.90;;;;;;5018196;28;20679;-81
2023/04/13 08:52:54;;;;;;;1.13;0.70;;;20.60;41.70;;;;;;5018770;28;20270;-81
2023/04/13 08:55:23;;;;;;;0.70;0.70;;;20.50;41.70;;;;;;5019040;28;20189;-81
2023/04/13 08:57:51;;;;;;;0.90;0.90;;;20.50;41.90;;;;;;5017765;28;20200;-81
2023/04/13 09:00:20;;;;;;;1.92;1.40;;;20.50;41.90;;;;;;5017912;28;20208;-80
2023/04/13 09:02:49;;;;;;;1.60;0.90;;;20.50;42.10;;;;;;5017041;28;20308;-81
2023/04/13 09:05:20;;;;;;;1.45;0.90;;;20.40;41.90;;;;;;5017674;28;20207;-82
2023/04/13 09:07:52;;;;;;;0.73;0.70;;;20.50;41.90;;;;;;5016579;28;20282;-80
2023/04/13 09:10:21;;;;;;;2.80;1.10;;;20.40;41.80;;;;;;5016400;28;20213;-81
2023/04/13 09:12:49;;;;;;;2.03;1.20;;;20.40;42.00;;;;;;5016637;28;20213;-81
2023/04/13 09:15:17;;;;;;;1.33;0.90;;;20.50;42.10;;;;;;5017436;28;20275;-81
2023/04/13 09:18:09;;;;;;;1.73;1.05;;;20.50;41.70;;;;;;5016777;28;20236;-80
2023/04/13 09:20:41;;;;;;;1.58;1.00;;;20.50;42.00;;;;;;5016148;28;20189;-80
2023/04/13 09:23:15;;;;;;;2.08;0.90;;;20.50;42.10;;;;;;5016181;28;20217;-80
2023/04/13 09:25:42;;;;;;;1.80;0.90;;;20.60;42.20;;;;;;4999785;28;20219;-80
2023/04/13 09:28:16;;;;;;;1.13;0.80;;;20.70;41.90;;;;;;5016065;28;20255;-80
2023/04/13 09:30:43;;;;;;;1.05;0.88;;;20.80;41.90;;;;;;5015988;28;20220;-80
2023/04/13 09:33:11;;;;;;;1.63;0.85;;;20.90;41.90;;;;;;5017140;28;20226;-80
2023/04/13 09:35:38;;;;;;;1.35;1.00;;;21.00;41.80;;;;;;5016106;28;20197;-80
2023/04/13 09:38:07;;;;;;;1.65;0.80;;;21.10;41.60;;;;;;5001261;28;20196;-80
2023/04/13 09:40:37;;;;;;;1.60;1.10;;;21.20;41.50;;;;;;5000342;28;20197;-80
2023/04/13 09:43:05;;;;;;;2.17;1.00;;;21.30;41.70;;;;;;5016353;28;20212;-80
2023/04/13 09:45:35;;;;;;;0.95;0.85;;;21.30;41.30;;;;;;5015733;28;20260;-81
2023/04/13 09:48:03;;;;;;;2.03;0.90;;;21.40;41.30;;;;;;5016120;28;20204;-81
2023/04/13 09:50:32;;;;;;;1.73;0.95;;;21.40;41.20;;;;;;5017581;28;20672;-81
2023/04/13 09:53:00;;;;;;;1.23;0.90;;;21.40;41.30;;;;;;5015533;28;20220;-81
2023/04/13 09:55:29;;;;;;;1.35;0.90;;;21.40;41.10;;;;;;5015019;28;20193;-81
2023/04/13 09:57:56;;;;;;;1.48;0.90;;;21.40;41.20;;;;;;5015409;28;20296;-81
2023/04/13 10:00:24;;;;;;;1.10;0.90;;;21.40;41.30;;;;;;5015040;28;20196;-81
2023/04/13 10:02:51;;;;;;;1.90;1.20;;;21.40;41.40;;;;;;5015201;28;20248;-81
2023/04/13 10:05:18;;;;;;;1.00;0.90;;;21.40;41.10;;;;;;5015446;28;20209;-81
2023/04/13 10:07:46;;;;;;;1.60;1.00;;;21.40;41.30;;;;;;4998801;28;20695;-81
2023/04/13 10:10:13;;;;;;;2.53;1.13;;;21.40;41.20;;;;;;5015411;28;20196;-81
2023/04/13 10:12:44;;;;;;;2.08;1.15;;;21.30;41.00;;;;;;5014927;28;20217;-81
2023/04/13 10:15:30;;;;;;;1.77;0.90;;;21.20;41.20;;;;;;5014740;28;20562;-81
2023/04/13 10:18:05;;;;;;;2.95;1.25;;;21.20;41.00;;;;;;5014654;28;20205;-82
2023/04/13 10:20:33;;;;;;;1.42;1.08;;;21.20;41.00;;;;;;4998325;28;20610;-81
2023/04/13 10:22:59;;;;;;;1.20;1.00;;;21.20;41.10;;;;;;5014900;28;20220;-81
2023/04/13 10:25:27;;;;;;;2.00;1.00;;;21.10;40.90;;;;;;5014440;28;20208;-81
2023/04/13 10:28:00;;;;;;;1.70;1.33;;;21.10;41.10;;;;;;5014541;28;20557;-81
2023/04/13 10:30:28;;;;;;;1.45;0.85;;;21.10;41.00;;;;;;5014740;28;20197;-81
2023/04/13 10:33:05;;;;;;;1.23;0.95;;;21.10;41.50;;;;;;5014302;28;20220;-81
2023/04/13 10:35:35;;;;;;;0.93;0.70;;;21.00;40.90;;;;;;5015541;28;20204;-81
2023/04/13 10:38:03;;;;;;;0.95;0.80;;;21.00;40.80;;;;;;5014517;28;20571;-81
2023/04/13 10:40:41;;;;;;;2.25;0.80;;;21.00;41.00;;;;;;5014202;28;20200;-81
2023/04/13 10:43:10;;;;;;;1.23;0.93;;;21.00;40.90;;;;;;5015062;28;20216;-81
2023/04/13 10:45:37;;;;;;;1.70;0.90;;;21.00;40.70;;;;;;5014759;28;20292;-81
2023/04/13 10:48:06;;;;;;;1.50;1.02;;;21.00;40.80;;;;;;5015643;28;20208;-82
2023/04/13 10:50:33;;;;;;;1.33;0.98;;;21.00;40.70;;;;;;5014889;28;20192;-82
2023/04/13 10:53:02;;;;;;;1.92;1.05;;;21.00;40.60;;;;;;5004327;28;20242;-82
2023/04/13 10:55:30;;;;;;;1.17;0.90;;;21.00;40.60;;;;;;5018540;28;20201;-81
2023/04/13 10:57:57;;;;;;;1.30;0.98;;;20.90;40.80;;;;;;5014063;28;20196;-81
2023/04/13 11:00:26;;;;;;;1.88;1.00;;;20.80;41.00;;;;;;5015832;28;20228;-81
2023/04/13 11:02:56;;;;;;;2.42;1.20;;;20.80;41.30;;;;;;5015696;28;20216;-81
2023/04/13 11:05:23;;;;;;;1.88;1.00;;;20.80;41.10;;;;;;5016229;28;20205;-81
2023/04/13 11:07:53;;;;;;;2.10;1.00;;;20.80;40.80;;;;;;5016302;28;20197;-81
2023/04/13 11:10:24;;;;;;;1.92;1.10;;;20.80;40.80;;;;;;5019066;28;20217;-81
2023/04/13 11:12:51;;;;;;;1.48;0.95;;;20.80;40.90;;;;;;5016399;28;20222;-81
2023/04/13 11:15:22;;;;;;;1.70;1.00;;;20.90;40.80;;;;;;5014443;28;20205;-81
2023/04/13 11:17:55;;;;;;;2.88;1.20;;;20.80;40.70;;;;;;5013866;28;20201;-81
2023/04/13 11:20:32;;;;;;;1.65;1.10;;;20.90;40.80;;;;;;5013822;28;20199;-81
2023/04/13 11:23:02;;;;;;;1.90;1.15;;;20.80;40.50;;;;;;5014229;28;20225;-81
2023/04/13 11:25:29;;;;;;;2.38;1.10;;;20.90;40.40;;;;;;5015518;28;20204;-81
2023/04/13 11:28:01;;;;;;;1.77;1.00;;;20.80;40.70;;;;;;5015206;28;20370;-81
2023/04/13 11:30:28;;;;;;;1.80;1.20;;;20.80;40.40;;;;;;5014578;28;20196;-81
2023/04/13 11:32:58;;;;;;;2.25;1.23;;;20.90;40.30;;;;;;5014916;28;20220;-81
2023/04/13 11:35:26;;;;;;;1.42;1.30;;;20.90;40.10;;;;;;5019315;28;20189;-81
2023/04/13 11:37:54;;;;;;;0.90;0.90;;;20.80;40.40;;;;;;5019700;28;20223;-81
2023/04/13 11:40:23;;;;;;;1.60;1.00;;;20.80;40.10;;;;;;5018763;28;20215;-81
2023/04/13 11:42:52;;;;;;;2.28;1.08;;;20.80;40.20;;;;;;5015563;28;20217;-82
2023/04/13 11:45:20;;;;;;;2.05;1.20;;;20.80;40.50;;;;;;5015556;28;20233;-82
2023/04/13 11:47:47;;;;;;;1.70;1.08;;;20.80;40.80;;;;;;5000492;28;20612;-82
2023/04/13 11:50:16;;;;;;;1.23;1.00;;;20.70;40.90;;;;;;5015632;28;20216;-81
2023/04/13 11:52:45;;;;;;;2.30;1.25;;;20.80;41.20;;;;;;5015261;28;20691;-81
2023/04/13 11:55:12;;;;;;;1.67;1.10;;;20.80;41.20;;;;;;5016461;28;20204;-81
2023/04/13 11:57:40;;;;;;;2.78;1.10;;;20.80;41.20;;;;;;5018675;28;20209;-80
2023/04/13 12:00:17;;;;;;;1.27;0.80;;;20.70;41.30;;;;;;5016025;28;20204;-83
2023/04/13 12:02:44;;;;;;;1.20;0.80;;;20.70;41.20;;;;;;5015648;28;20228;-82
2023/04/13 12:05:22;;;;;;;1.35;0.88;;;20.70;41.10;;;;;;5000275;28;20203;-83
2023/04/13 12:07:49;;;;;;;1.42;0.88;;;20.70;41.20;;;;;;5016632;28;20292;-82
2023/04/13 12:10:21;;;;;;;1.33;0.80;;;20.70;41.30;;;;;;5020123;28;20259;-82
2023/04/13 12:12:56;;;;;;;1.25;0.90;;;20.70;41.40;;;;;;5019577;28;20276;-82
2023/04/13 12:15:24;;;;;;;1.38;0.90;;;20.70;41.50;;;;;;5020219;28;20192;-82
2023/04/13 12:17:53;;;;;;;2.65;1.00;;;20.70;41.40;;;;;;5019820;28;20204;-82
2023/04/13 12:20:22;;;;;;;1.92;0.90;;;20.70;41.40;;;;;;5019672;28;20648;-82
2023/04/13 12:22:50;;;;;;;0.80;0.80;;;20.70;41.70;;;;;;5019475;28;20224;-82
2023/04/13 12:25:17;;;;;;;1.73;1.10;;;20.80;41.70;;;;;;5019979;28;20299;-82
2023/04/13 12:27:45;;;;;;;1.15;0.80;;;20.80;41.40;;;;;;5024593;28;20224;-82
2023/04/13 12:30:14;;;;;;;1.20;1.05;;;20.90;41.50;;;;;;5029895;28;20205;-82
2023/04/13 12:32:43;;;;;;;2.40;1.20;;;20.90;41.50;;;;;;5028933;28;20232;-82
2023/04/13 12:35:10;;;;;;;1.40;1.00;;;21.00;41.20;;;;;;5010837;28;20196;-83
2023/04/13 12:37:41;;;;;;;1.33;0.85;;;21.00;41.20;;;;;;5021742;28;20197;-83
2023/04/13 12:40:11;;;;;;;1.83;1.13;;;21.00;41.20;;;;;;5017706;28;20220;-82
2023/04/13 12:42:39;;;;;;;1.67;1.10;;;21.00;41.80;;;;;;5017765;28;20235;-83
2023/04/13 12:45:07;;;;;;;1.77;1.00;;;21.00;41.10;;;;;;5018730;28;20203;-82
2023/04/13 12:47:35;;;;;;;2.10;1.23;;;21.00;41.20;;;;;;5019745;28;20211;-83
2023/04/13 12:50:03;;;;;;;1.02;0.90;;;20.90;41.20;;;;;;5017944;28;20205;-82
2023/04/13 12:52:31;;;;;;;1.75;1.20;;;20.90;41.30;;;;;;5019007;28;20217;-82
2023/04/13 12:55:00;;;;;;;1.65;1.33;;;20.90;41.30;;;;;;5019533;28;20200;-82
2023/04/13 12:57:28;;;;;;;2.03;1.10;;;20.90;41.20;;;;;;5003106;28;20208;-82
2023/04/13 12:59:55;;;;;;;1.92;1.30;;;20.90;41.20;;;;;;5019323;28;20196;-82
2023/04/13 13:02:22;;;;;;;1.92;1.10;;;20.90;41.20;;;;;;5019350;28;20221;-81